0O0 weather

San Luis Reservoir Seaplane Base
Los Banos, California, United States

Public forecast

Using degrees Fahrenheit for public forecast. Weather courtesy of forecast.io.

Closest aviation weather report (METAR) to San Luis Reservoir Seaplane Base

Closest report is San Martin Airport, 22.6 nm (41.9 km) W. Retrieved UTC (0 seconds ago):

Closest aviation forecast (TAF) to San Luis Reservoir Seaplane Base

Closest forecast is Merced Regional Macready Field, 32.3 nm (59.8 km) ENE. Retrieved 2019-10-22 00:22 UTC (5 hours ago):

TAF KMCE 212320Z 2200/2224 VRB04KT P6SM SKC